createdAt,value
2019-04-03T00:00:28.380Z,98282.33
2019-04-03T00:03:01.321Z,98283.14
2019-04-03T00:05:35.955Z,98272.38
2019-04-03T00:08:09.188Z,98273.17
2019-04-03T00:10:42.158Z,98275.41
2019-04-03T00:13:14.984Z,98262.71
2019-04-03T00:15:47.759Z,98260.45
2019-04-03T00:18:20.552Z,98264.63
2019-04-03T00:20:53.551Z,98262.38
2019-04-03T00:23:26.379Z,98255.13
2019-04-03T00:25:59.335Z,98250.47
2019-04-03T00:28:32.232Z,98242.27
2019-04-03T00:31:05.041Z,98241.61
2019-04-03T00:33:37.908Z,98238.70
2019-04-03T00:36:10.705Z,98239.18
2019-04-03T00:38:43.602Z,98239.19
2019-04-03T00:41:16.460Z,98242.09
2019-04-03T00:43:49.299Z,98236.77
2019-04-03T00:46:22.800Z,98237.88
2019-04-03T00:48:56.676Z,98240.30
2019-04-03T00:51:29.828Z,98232.41
2019-04-03T00:54:02.663Z,98234.50
2019-04-03T00:56:36.666Z,98231.78
2019-04-03T00:59:09.598Z,98229.87
2019-04-03T01:01:42.432Z,98227.60
2019-04-03T01:04:15.317Z,98228.86
2019-04-03T01:06:48.114Z,98224.84
2019-04-03T01:09:21.988Z,98227.58
2019-04-03T01:11:54.864Z,98234.49
2019-04-03T01:14:27.762Z,98230.34
2019-04-03T01:17:03.486Z,98225.17
2019-04-03T01:19:36.892Z,98228.86
2019-04-03T01:22:09.935Z,98219.55
2019-04-03T01:24:42.944Z,98221.78
2019-04-03T01:27:15.795Z,98223.05
2019-04-03T01:29:48.611Z,98216.92
2019-04-03T01:32:21.411Z,98222.22
2019-04-03T01:34:54.303Z,98221.26
2019-04-03T01:37:27.170Z,98214.98
2019-04-03T01:40:00.048Z,98212.85
2019-04-03T01:42:32.836Z,98211.08
2019-04-03T01:45:06.273Z,98212.70
2019-04-03T01:47:39.227Z,98206.25
2019-04-03T01:50:12.054Z,98207.38
2019-04-03T01:52:44.836Z,98199.81
2019-04-03T01:55:17.754Z,98199.48
2019-04-03T01:57:50.621Z,98196.10
2019-04-03T02:00:23.571Z,98195.78
2019-04-03T02:02:56.414Z,98193.52
2019-04-03T02:05:29.328Z,98193.20
2019-04-03T02:08:02.176Z,98190.12
2019-04-03T02:10:35.291Z,98187.22
2019-04-03T02:13:08.255Z,98184.19
2019-04-03T02:15:41.072Z,98182.54
2019-04-03T02:18:13.972Z,98175.43
2019-04-03T02:20:46.813Z,98174.45
2019-04-03T02:23:19.634Z,98175.89
2019-04-03T02:25:52.443Z,98172.00
2019-04-03T02:28:25.226Z,98171.52
2019-04-03T02:30:58.141Z,98165.08
2019-04-03T02:33:32.113Z,98166.84
2019-04-03T02:36:04.958Z,98157.68
2019-04-03T02:38:39.577Z,98162.50
2019-04-03T02:41:12.424Z,98153.66
2019-04-03T02:43:46.717Z,98156.09
2019-04-03T02:46:19.915Z,98157.20
2019-04-03T02:48:52.698Z,98155.91
2019-04-03T02:51:25.508Z,98156.22
2019-04-03T02:54:01.606Z,98167.78
2019-04-03T02:56:32.829Z,98169.38
2019-04-03T02:59:05.738Z,98170.84
2019-04-03T03:01:39.835Z,98171.61
2019-04-03T03:04:13.201Z,98178.50
2019-04-03T03:06:46.339Z,98174.13
2019-04-03T03:09:19.486Z,98176.03
2019-04-03T03:11:54.866Z,98171.98
2019-04-03T03:14:27.054Z,98164.90
2019-04-03T03:17:01.110Z,98171.81
2019-04-03T03:19:34.018Z,98172.13
2019-04-03T03:22:06.820Z,98172.77
2019-04-03T03:24:39.682Z,98166.64
2019-04-03T03:27:12.501Z,98163.58
2019-04-03T03:29:45.368Z,98157.45
2019-04-03T03:32:22.387Z,98160.83
2019-04-03T03:35:06.582Z,98162.44
2019-04-03T03:37:27.791Z,98162.25
2019-04-03T03:40:00.632Z,98152.76
2019-04-03T03:42:33.938Z,98154.34
2019-04-03T03:45:06.888Z,98163.98
2019-04-03T03:47:39.757Z,98154.50
2019-04-03T03:50:13.954Z,98147.27
2019-04-03T03:52:47.335Z,98151.08
2019-04-03T03:55:22.901Z,98158.13
2019-04-03T03:57:55.257Z,98159.71
2019-04-03T04:00:28.097Z,98160.52
2019-04-03T04:03:00.925Z,98159.84
2019-04-03T04:05:33.810Z,98154.21
2019-04-03T04:08:10.471Z,98153.25
2019-04-03T04:10:41.515Z,98152.77
2019-04-03T04:13:15.796Z,98148.87
2019-04-03T04:15:49.245Z,98148.87
2019-04-03T04:18:23.730Z,98151.27
2019-04-03T04:20:56.992Z,98151.44
2019-04-03T04:23:29.930Z,98152.75
2019-04-03T04:26:02.790Z,98153.56
2019-04-03T04:28:35.633Z,98152.28
2019-04-03T04:31:08.602Z,98155.83
2019-04-03T04:33:41.442Z,98153.42
2019-04-03T04:36:14.251Z,98147.00
2019-04-03T04:38:47.131Z,98148.94
2019-04-03T04:41:19.908Z,98146.69
2019-04-03T04:43:52.718Z,98146.99
2019-04-03T04:46:25.594Z,98144.73
2019-04-03T04:48:58.482Z,98141.84
2019-04-03T04:51:31.302Z,98140.91
2019-04-03T04:54:04.138Z,98129.81
2019-04-03T04:56:38.529Z,98132.06
2019-04-03T04:59:13.140Z,98134.13
2019-04-03T05:01:48.465Z,98134.62
2019-04-03T05:04:20.808Z,98128.17
2019-04-03T05:06:53.828Z,98137.48
2019-04-03T05:09:26.719Z,98132.66
2019-04-03T05:11:59.503Z,98134.58
2019-04-03T05:14:32.303Z,98134.78
2019-04-03T05:17:06.265Z,98136.54
2019-04-03T05:19:39.106Z,98140.19
2019-04-03T05:22:11.897Z,98140.03
2019-04-03T05:24:44.694Z,98138.77
2019-04-03T05:27:17.523Z,98137.97
2019-04-03T05:29:50.341Z,98137.78
2019-04-03T05:32:23.159Z,98138.57
2019-04-03T05:34:55.970Z,98135.52
2019-04-03T05:37:29.649Z,98137.45
2019-04-03T05:40:02.850Z,98131.49
2019-04-03T05:42:35.829Z,98127.33
2019-04-03T05:45:08.809Z,98122.66
2019-04-03T05:47:41.835Z,98119.61
2019-04-03T05:50:14.685Z,98113.83
2019-04-03T05:52:47.529Z,98106.75
2019-04-03T05:55:20.385Z,98107.03
2019-04-03T05:57:53.194Z,98107.20
2019-04-03T06:00:26.823Z,98114.53
2019-04-03T06:02:59.573Z,98117.23
2019-04-03T06:05:32.532Z,98111.45
2019-04-03T06:08:05.442Z,98111.08
2019-04-03T06:10:38.251Z,98111.24
2019-04-03T06:13:16.688Z,98102.75
2019-04-03T06:15:49.147Z,98100.98
2019-04-03T06:18:25.626Z,98095.83
2019-04-03T06:20:57.895Z,98099.35
2019-04-03T06:23:30.745Z,98101.23
2019-04-03T06:26:03.908Z,98106.67
2019-04-03T06:28:36.718Z,98104.25
2019-04-03T06:31:09.579Z,98104.73
2019-04-03T06:33:42.528Z,98104.72
2019-04-03T06:36:17.984Z,98099.73
2019-04-03T06:38:55.448Z,98101.36
2019-04-03T06:41:28.991Z,98101.04
2019-04-03T06:44:02.002Z,98102.36
2019-04-03T06:46:35.129Z,98098.16
2019-04-03T06:49:08.875Z,98095.48
2019-04-03T06:51:42.542Z,98092.73
2019-04-03T06:54:15.801Z,98092.89
2019-04-03T06:56:52.044Z,98089.87
2019-04-03T06:59:24.761Z,98084.91
2019-04-03T07:01:58.130Z,98085.73
2019-04-03T07:04:31.666Z,98080.75
2019-04-03T07:07:04.830Z,98079.45
2019-04-03T07:09:38.089Z,98083.28
2019-04-03T07:12:15.972Z,98079.91
2019-04-03T07:14:51.928Z,98081.02
2019-04-03T07:17:26.470Z,98070.58
2019-04-03T07:20:12.067Z,98069.45
2019-04-03T07:22:36.258Z,98072.16
2019-04-03T07:25:10.227Z,98072.33
2019-04-03T07:27:43.880Z,98065.44
2019-04-03T07:30:18.172Z,98060.48
2019-04-03T07:32:51.621Z,98062.59
2019-04-03T07:35:24.652Z,98071.43
2019-04-03T07:37:58.119Z,98066.80
2019-04-03T07:40:31.265Z,98063.11
2019-04-03T07:43:04.574Z,98059.93
2019-04-03T07:45:37.557Z,98054.02
2019-04-03T07:48:10.792Z,98060.48
2019-04-03T07:50:43.817Z,98070.31
2019-04-03T07:53:19.932Z,98078.91
2019-04-03T07:55:54.973Z,98078.13
2019-04-03T07:58:30.630Z,98077.98
2019-04-03T08:01:03.176Z,98079.41
2019-04-03T08:03:36.975Z,98079.74
2019-04-03T08:06:29.885Z,98082.63
2019-04-03T08:09:08.561Z,98092.11
2019-04-03T08:11:39.130Z,98095.80
2019-04-03T08:14:12.389Z,98101.73
2019-04-03T08:16:47.484Z,98109.59
2019-04-03T08:19:20.910Z,98106.70
2019-04-03T08:22:01.136Z,98107.34
2019-04-03T08:24:33.378Z,98110.87
2019-04-03T08:27:08.533Z,98114.72
2019-04-03T08:29:41.274Z,98110.55
2019-04-03T08:32:16.251Z,98113.27
2019-04-03T08:34:49.762Z,98108.13
2019-04-03T08:37:30.923Z,98111.67
2019-04-03T08:40:00.088Z,98109.42
2019-04-03T08:42:37.012Z,98112.65
2019-04-03T08:45:11.568Z,98113.63
2019-04-03T08:47:46.152Z,98104.81
2019-04-03T08:50:20.012Z,98105.77
2019-04-03T08:52:53.849Z,98107.88
2019-04-03T08:55:30.732Z,98107.27
2019-04-03T08:58:04.913Z,98106.33
2019-04-03T09:00:37.988Z,98100.23
2019-04-03T09:03:13.928Z,98087.56
2019-04-03T09:05:45.373Z,98088.22
2019-04-03T09:08:18.128Z,98089.19
2019-04-03T09:10:51.017Z,98095.28
2019-04-03T09:13:24.235Z,98097.86
2019-04-03T09:15:59.413Z,98098.95
2019-04-03T09:18:34.151Z,98097.67
2019-04-03T09:21:07.234Z,98100.08
2019-04-03T09:23:40.063Z,98107.46
2019-04-03T09:26:13.099Z,98106.36
2019-04-03T09:28:46.009Z,98106.52
2019-04-03T09:31:20.520Z,98101.54
2019-04-03T09:33:56.259Z,98099.91
2019-04-03T09:36:28.418Z,98098.31
2019-04-03T09:39:01.529Z,98100.73
2019-04-03T09:41:35.553Z,98094.45
2019-04-03T09:44:08.431Z,98087.08
2019-04-03T09:46:44.371Z,98090.47
2019-04-03T09:49:16.410Z,98091.45
2019-04-03T09:51:51.444Z,98095.48
2019-04-03T09:54:24.026Z,98099.64
2019-04-03T09:57:03.779Z,98103.16
2019-04-03T09:59:31.573Z,98102.19
2019-04-03T10:02:04.772Z,98118.52
2019-04-03T10:04:37.704Z,98127.27
2019-04-03T10:07:10.577Z,98124.33
2019-04-03T10:09:44.843Z,98116.23
2019-04-03T10:12:18.056Z,98133.13
2019-04-03T10:14:52.212Z,98127.80
2019-04-03T10:17:25.760Z,98138.31
2019-04-03T10:19:58.729Z,98138.92
2019-04-03T10:22:31.598Z,98153.78
2019-04-03T10:25:05.473Z,98146.53
2019-04-03T10:27:39.226Z,98149.85
2019-04-03T10:30:14.288Z,98152.41
2019-04-03T10:32:47.300Z,98150.30
2019-04-03T10:35:20.191Z,98149.30
2019-04-03T10:37:53.513Z,98145.44
2019-04-03T10:40:29.117Z,98139.52
2019-04-03T10:43:04.696Z,98128.41
2019-04-03T10:45:36.509Z,98123.79
2019-04-03T10:48:11.211Z,98127.97
2019-04-03T10:50:44.142Z,98123.19
2019-04-03T10:53:17.903Z,98115.38
2019-04-03T10:55:51.710Z,98107.69
2019-04-03T10:58:24.720Z,98097.48
2019-04-03T11:00:59.110Z,98090.77
2019-04-03T11:03:32.791Z,98088.23
2019-04-03T11:06:05.644Z,98090.06
2019-04-03T11:08:38.744Z,98076.31
2019-04-03T11:11:11.654Z,98080.50
2019-04-03T11:13:44.935Z,98064.97
2019-04-03T11:16:18.172Z,98061.95
2019-04-03T11:18:58.589Z,98063.33
2019-04-03T11:21:26.595Z,98065.45
2019-04-03T11:24:00.226Z,98070.31
2019-04-03T11:26:37.216Z,98073.58
2019-04-03T11:29:11.651Z,98072.61
2019-04-03T11:31:44.567Z,98064.47
2019-04-03T11:34:18.574Z,98056.77
2019-04-03T11:36:52.139Z,98067.06
2019-04-03T11:39:25.638Z,98075.25
2019-04-03T11:41:58.807Z,98055.19
2019-04-03T11:44:31.797Z,98064.35
2019-04-03T11:47:04.851Z,98063.53
2019-04-03T11:49:38.116Z,98066.91
2019-04-03T11:52:11.452Z,98081.03
2019-04-03T11:54:46.474Z,98084.54
2019-04-03T11:57:23.030Z,98081.97
2019-04-03T11:59:57.089Z,98068.30
2019-04-03T12:02:31.779Z,98064.27
2019-04-03T12:05:05.539Z,98062.19
2019-04-03T12:07:39.012Z,98061.55
2019-04-03T12:10:13.729Z,98064.42
2019-04-03T12:12:50.285Z,98060.23
2019-04-03T12:15:26.986Z,98056.82
2019-04-03T12:18:01.534Z,98046.39
2019-04-03T12:20:35.056Z,98051.96
2019-04-03T12:23:08.160Z,98044.39
2019-04-03T12:25:44.135Z,98042.30
2019-04-03T12:28:18.458Z,98045.19
2019-04-03T12:30:51.983Z,98037.50
2019-04-03T12:33:26.585Z,98041.36
2019-04-03T12:35:59.639Z,98040.41
2019-04-03T12:38:33.023Z,98038.80
2019-04-03T12:41:11.603Z,98039.61
2019-04-03T12:43:44.928Z,98040.75
2019-04-03T12:46:19.702Z,98021.18
2019-04-03T12:48:52.620Z,98010.78
2019-04-03T12:51:25.666Z,98003.07
2019-04-03T12:54:07.333Z,98009.49
2019-04-03T12:56:40.442Z,98011.64
2019-04-03T12:59:13.864Z,98014.05
2019-04-03T13:01:49.228Z,98012.47
2019-04-03T13:04:21.799Z,98001.91
2019-04-03T13:06:54.882Z,98007.84
2019-04-03T13:09:27.931Z,98010.59
2019-04-03T13:12:01.002Z,97999.67
2019-04-03T13:14:35.175Z,97991.67
2019-04-03T13:17:08.474Z,97974.05
2019-04-03T13:20:01.569Z,97955.73
2019-04-03T13:22:55.513Z,97953.17
2019-04-03T13:26:41.229Z,97940.80
2019-04-03T13:29:34.331Z,97921.87
2019-04-03T13:32:41.789Z,97905.97
2019-04-03T13:35:16.747Z,97906.45
2019-04-03T13:38:23.096Z,97911.61
2019-04-03T13:41:21.725Z,97926.83
2019-04-03T13:44:13.525Z,97950.92
2019-04-03T13:47:15.640Z,97953.33
2019-04-03T13:50:03.602Z,97960.69
2019-04-03T13:52:58.719Z,97962.92
2019-04-03T13:56:12.231Z,97944.44
2019-04-03T14:02:31.920Z,97924.02
2019-04-03T14:05:44.492Z,97912.28
2019-04-03T14:08:34.236Z,97909.39
2019-04-03T14:11:21.008Z,97908.25
2019-04-03T14:14:27.186Z,97904.74
2019-04-03T14:17:24.710Z,97885.17
2019-04-03T14:23:22.955Z,97876.98
2019-04-03T14:26:13.837Z,97875.22
2019-04-03T14:29:00.259Z,97878.09
2019-04-03T14:31:50.130Z,97875.84
2019-04-03T14:37:58.327Z,97881.62
2019-04-03T14:41:01.685Z,97888.18
2019-04-03T14:44:12.040Z,97880.96
2019-04-03T14:46:56.694Z,97886.25
2019-04-03T14:49:39.473Z,97885.28
2019-04-03T14:52:24.354Z,97875.80
2019-04-03T14:55:20.303Z,97874.01
2019-04-03T14:58:06.737Z,97865.35
2019-04-03T15:00:55.325Z,97869.97
2019-04-03T15:03:37.195Z,97879.73
2019-04-03T15:06:26.135Z,97881.33
2019-04-03T15:09:19.149Z,97882.77
2019-04-03T15:12:27.016Z,97878.41
2019-04-03T15:15:13.764Z,97878.05
2019-04-03T15:18:16.458Z,97883.51
2019-04-03T15:21:07.819Z,97892.63
2019-04-03T15:24:03.590Z,97897.41
2019-04-03T15:26:59.080Z,97902.66
2019-04-03T15:30:01.664Z,97891.42
2019-04-03T15:32:59.225Z,97887.08
2019-04-03T15:36:03.507Z,97886.73
2019-04-03T15:39:22.824Z,97887.70
2019-04-03T15:42:09.433Z,97892.45
2019-04-03T15:44:57.129Z,97892.61
2019-04-03T15:47:46.761Z,97894.07
2019-04-03T15:50:49.987Z,97883.45
2019-04-03T15:54:03.282Z,97862.12
2019-04-03T15:57:03.224Z,97894.11
2019-04-03T16:00:04.364Z,97903.84
2019-04-03T16:02:55.127Z,97903.30
2019-04-03T16:05:38.623Z,97920.56
2019-04-03T16:08:38.312Z,97963.10
2019-04-03T16:11:42.009Z,97982.17
2019-04-03T16:14:34.086Z,97952.78
2019-04-03T16:20:50.338Z,97954.88
2019-04-03T16:23:44.887Z,97954.67
2019-04-03T16:26:34.782Z,97940.53
2019-04-03T16:29:39.869Z,97948.69
2019-04-03T16:32:39.117Z,97962.25
2019-04-03T16:35:48.240Z,97964.95
2019-04-03T16:38:42.943Z,97957.70
2019-04-03T16:41:32.434Z,97944.70
2019-04-03T16:44:18.511Z,97960.03
2019-04-03T16:47:38.349Z,97970.55
2019-04-03T16:50:39.805Z,97982.18
2019-04-03T16:53:49.853Z,97991.08
2019-04-03T16:57:08.255Z,97986.88
2019-04-03T17:00:25.489Z,97993.55
2019-04-03T17:03:33.709Z,97989.31
2019-04-03T17:06:18.292Z,97990.41
2019-04-03T17:09:27.085Z,97992.33
2019-04-03T17:12:49.560Z,97990.19
2019-04-03T17:15:57.388Z,97987.25
2019-04-03T17:18:40.120Z,97974.94
2019-04-03T17:21:36.984Z,97975.55
2019-04-03T17:24:06.040Z,97981.30
2019-04-03T17:26:48.819Z,97990.86
2019-04-03T17:29:15.127Z,97985.72
2019-04-03T17:31:49.478Z,97971.02
2019-04-03T17:34:22.285Z,97981.91
2019-04-03T17:36:55.453Z,97977.25
2019-04-03T17:39:28.474Z,97978.95
2019-04-03T17:42:01.266Z,97976.06
2019-04-03T17:44:34.050Z,97969.30
2019-04-03T17:47:07.065Z,97965.91
2019-04-03T17:49:39.865Z,97962.22
2019-04-03T17:52:12.699Z,97976.36
2019-04-03T17:54:45.556Z,97978.90
2019-04-03T17:57:18.347Z,97968.61
2019-04-03T17:59:51.269Z,97989.20
2019-04-03T18:02:24.569Z,98000.62
2019-04-03T18:04:58.001Z,97993.52
2019-04-03T18:07:30.827Z,97987.30
2019-04-03T18:10:03.656Z,97985.40
2019-04-03T18:12:36.473Z,97988.64
2019-04-03T18:15:09.429Z,97992.35
2019-04-03T18:17:42.274Z,97987.23
2019-04-03T18:20:15.073Z,97983.90
2019-04-03T18:22:51.772Z,97975.59
2019-04-03T18:25:24.888Z,97984.52
2019-04-03T18:27:57.868Z,97977.62
2019-04-03T18:30:30.676Z,97968.52
2019-04-03T18:33:05.752Z,97954.17
2019-04-03T18:35:38.143Z,97952.75
2019-04-03T18:38:10.869Z,97978.64
2019-04-03T18:40:45.489Z,97989.16
2019-04-03T18:43:21.621Z,97980.33
2019-04-03T18:45:53.837Z,97975.34
2019-04-03T18:48:27.725Z,97977.58
2019-04-03T18:51:01.844Z,97959.98
2019-04-03T18:53:34.681Z,97956.30
2019-04-03T18:56:07.861Z,97958.42
2019-04-03T18:58:43.761Z,97956.16
2019-04-03T19:01:17.083Z,97957.94
2019-04-03T19:03:50.239Z,97959.86
2019-04-03T19:06:24.720Z,97960.17
2019-04-03T19:09:09.274Z,97966.68
2019-04-03T19:11:34.359Z,97971.16
2019-04-03T19:14:06.851Z,97983.44
2019-04-03T19:16:45.141Z,97965.56
2019-04-03T19:19:16.473Z,97962.19
2019-04-03T19:21:48.888Z,97965.70
2019-04-03T19:24:24.443Z,97951.00
2019-04-03T19:26:56.345Z,97950.84
2019-04-03T19:29:29.218Z,97959.49
2019-04-03T19:32:02.028Z,97982.20
2019-04-03T19:34:34.928Z,97992.91
2019-04-03T19:37:07.788Z,97980.59
2019-04-03T19:39:40.770Z,97985.04
2019-04-03T19:42:13.987Z,97968.06
2019-04-03T19:44:49.176Z,97978.42
2019-04-03T19:47:24.374Z,97987.84
2019-04-03T19:49:59.738Z,97981.56
2019-04-03T19:52:31.791Z,97978.92
2019-04-03T19:55:04.878Z,97991.50
2019-04-03T19:57:37.768Z,98009.66
2019-04-03T20:00:11.151Z,98007.81
2019-04-03T20:02:44.051Z,98002.50
2019-04-03T20:05:18.829Z,98002.95
2019-04-03T20:07:51.492Z,97993.81
2019-04-03T20:10:24.419Z,97986.16
2019-04-03T20:12:57.287Z,97992.21
2019-04-03T20:15:30.163Z,97988.54
2019-04-03T20:18:02.950Z,97996.73
2019-04-03T20:20:35.781Z,97993.14
2019-04-03T20:23:08.961Z,97990.73
2019-04-03T20:25:44.010Z,98006.79
2019-04-03T20:28:17.831Z,98007.73
2019-04-03T20:30:50.890Z,97993.95
2019-04-03T20:33:23.669Z,97978.30
2019-04-03T20:35:56.526Z,97980.36
2019-04-03T20:38:30.398Z,97974.73
2019-04-03T20:41:03.833Z,97975.62
2019-04-03T20:43:36.834Z,97974.91
2019-04-03T20:46:09.638Z,97971.70
2019-04-03T20:48:42.500Z,97967.34
2019-04-03T20:51:15.341Z,97967.64
2019-04-03T20:53:50.037Z,97976.20
2019-04-03T20:56:22.622Z,97967.70
2019-04-03T20:58:56.519Z,97959.86
2019-04-03T21:01:30.469Z,97955.52
2019-04-03T21:04:03.255Z,97945.95
2019-04-03T21:06:37.536Z,97961.77
2019-04-03T21:09:10.474Z,97967.17
2019-04-03T21:11:43.326Z,97958.53
2019-04-03T21:14:16.162Z,97962.23
2019-04-03T21:16:49.029Z,97972.13
2019-04-03T21:19:22.025Z,97987.30
2019-04-03T21:21:54.943Z,97987.91
2019-04-03T21:24:27.709Z,97992.88
2019-04-03T21:27:00.531Z,98002.43
2019-04-03T21:29:33.324Z,97997.98
2019-04-03T21:32:06.173Z,97987.80
2019-04-03T21:34:38.961Z,97977.89
2019-04-03T21:37:13.962Z,97976.34
2019-04-03T21:39:46.385Z,97978.29
2019-04-03T21:42:19.207Z,97972.70
2019-04-03T21:44:52.033Z,97965.78
2019-04-03T21:47:24.831Z,97968.98
2019-04-03T21:49:57.651Z,97970.59
2019-04-03T21:52:30.442Z,97974.32
2019-04-03T21:55:04.827Z,97970.64
2019-04-03T21:57:38.624Z,97969.08
2019-04-03T22:00:13.941Z,97961.55
2019-04-03T22:02:49.869Z,97976.21
2019-04-03T22:05:24.737Z,97980.68
2019-04-03T22:07:58.261Z,97985.44
2019-04-03T22:10:32.992Z,97982.23
2019-04-03T22:13:07.728Z,97987.81
2019-04-03T22:15:41.124Z,97989.05
2019-04-03T22:18:14.022Z,97978.95
2019-04-03T22:20:46.822Z,97984.50
2019-04-03T22:23:19.641Z,97985.97
2019-04-03T22:25:52.458Z,97985.45
2019-04-03T22:28:25.317Z,97982.52
2019-04-03T22:30:58.100Z,97980.08
2019-04-03T22:33:30.976Z,97983.73
2019-04-03T22:36:03.982Z,97986.06
2019-04-03T22:38:37.172Z,97986.73
2019-04-03T22:41:12.721Z,97975.83
2019-04-03T22:43:46.215Z,97970.56
2019-04-03T22:46:21.725Z,97974.00
2019-04-03T22:48:54.185Z,97983.89
2019-04-03T22:51:27.029Z,97981.64
2019-04-03T22:54:02.945Z,97974.09
2019-04-03T22:56:35.733Z,97967.70
2019-04-03T22:59:08.600Z,97972.81
2019-04-03T23:01:41.591Z,97983.34
2019-04-03T23:04:15.488Z,97973.42
2019-04-03T23:06:49.688Z,97958.75
2019-04-03T23:09:24.695Z,97955.83
2019-04-03T23:11:57.292Z,97944.15
2019-04-03T23:14:30.118Z,97948.65
2019-04-03T23:17:02.918Z,97953.41
2019-04-03T23:19:35.797Z,97955.14
2019-04-03T23:22:08.656Z,97953.36
2019-04-03T23:24:41.477Z,97944.77
2019-04-03T23:27:14.278Z,97936.36
2019-04-03T23:29:47.085Z,97929.49
2019-04-03T23:32:19.974Z,97930.64
2019-04-03T23:34:52.808Z,97931.20
2019-04-03T23:37:25.589Z,97915.02
2019-04-03T23:40:00.756Z,97915.02
2019-04-03T23:42:33.027Z,97907.05
2019-04-03T23:45:06.172Z,97895.08
2019-04-03T23:47:38.952Z,97888.25
2019-04-03T23:50:11.768Z,97880.77
2019-04-03T23:52:44.678Z,97873.06
2019-04-03T23:55:17.527Z,97870.12
2019-04-03T23:57:50.361Z,97859.20
